createdAt,value
2023-01-11T00:02:30.352Z,22.60
2023-01-11T00:06:22.378Z,21.70
2023-01-11T00:10:05.589Z,19.00
2023-01-11T00:13:37.393Z,20.70
2023-01-11T00:17:20.386Z,20.70
2023-01-11T00:21:03.621Z,20.00
2023-01-11T00:24:46.707Z,18.40
2023-01-11T00:28:23.487Z,18.90
2023-01-11T00:32:06.506Z,21.00
2023-01-11T00:35:50.390Z,19.60
2023-01-11T00:39:33.408Z,19.10
2023-01-11T00:42:59.950Z,19.80
2023-01-11T00:46:41.528Z,21.60
2023-01-11T00:50:23.287Z,21.10
2023-01-11T00:54:06.378Z,19.90
2023-01-11T00:57:41.931Z,20.50
2023-01-11T01:01:25.187Z,19.70
2023-01-11T01:05:08.465Z,20.20
2023-01-11T01:08:52.079Z,21.30
2023-01-11T01:12:35.132Z,22.10
2023-01-11T01:16:18.303Z,19.10
2023-01-11T01:20:01.613Z,20.00
2023-01-11T01:23:37.341Z,22.20
2023-01-11T01:27:19.371Z,23.20
2023-01-11T01:30:56.083Z,21.40
2023-01-11T01:34:20.306Z,23.10
2023-01-11T01:38:03.358Z,22.00
2023-01-11T01:41:46.624Z,23.20
2023-01-11T01:45:39.886Z,21.00
2023-01-11T01:49:22.919Z,21.80
2023-01-11T01:53:04.641Z,24.50
2023-01-11T01:56:56.846Z,23.40
2023-01-11T02:00:46.405Z,23.70
2023-01-11T02:04:29.466Z,24.10
2023-01-11T02:08:09.721Z,25.30
2023-01-11T02:11:52.809Z,24.60
2023-01-11T02:15:35.892Z,23.90
2023-01-11T02:19:18.966Z,25.30
2023-01-11T02:23:04.758Z,24.80
2023-01-11T02:27:07.151Z,25.50
2023-01-11T02:30:49.385Z,27.80
2023-01-11T02:34:31.053Z,25.20
2023-01-11T02:38:25.994Z,23.70
2023-01-11T02:42:01.068Z,23.70
2023-01-11T02:45:54.541Z,22.70
2023-01-11T02:49:29.075Z,22.20
2023-01-11T02:53:25.097Z,25.50
2023-01-11T02:57:16.599Z,25.20
2023-01-11T03:00:59.809Z,25.80
2023-01-11T03:04:35.460Z,25.10
2023-01-11T03:08:36.819Z,24.90
2023-01-11T03:12:10.307Z,24.30
2023-01-11T03:16:11.220Z,25.20
2023-01-11T03:19:58.968Z,25.20
2023-01-11T03:24:00.001Z,25.90
2023-01-11T03:27:57.847Z,26.00
2023-01-11T03:31:46.807Z,25.60
2023-01-11T03:35:35.755Z,23.90
2023-01-11T03:39:33.831Z,25.00
2023-01-11T03:43:07.932Z,24.20
2023-01-11T03:47:08.524Z,24.70
2023-01-11T03:50:51.568Z,24.20
2023-01-11T03:54:38.833Z,24.30
2023-01-11T03:58:24.899Z,23.40
2023-01-11T04:01:45.328Z,22.00
2023-01-11T04:05:28.576Z,22.90
2023-01-11T04:09:11.692Z,23.90
2023-01-11T04:12:55.073Z,22.50
2023-01-11T04:16:32.168Z,21.10
2023-01-11T04:20:15.140Z,20.70
2023-01-11T04:23:47.060Z,20.60
2023-01-11T04:27:30.049Z,19.70
2023-01-11T04:31:27.936Z,19.50
2023-01-11T04:35:11.005Z,21.20
2023-01-11T04:38:47.597Z,23.00
2023-01-11T04:42:39.315Z,19.50
2023-01-11T04:46:22.402Z,19.70
2023-01-11T04:50:05.584Z,18.90
2023-01-11T04:53:37.226Z,19.90
2023-01-11T04:57:20.263Z,17.40
2023-01-11T05:01:03.659Z,19.00
2023-01-11T05:04:47.086Z,18.50
2023-01-11T05:08:30.424Z,18.50
2023-01-11T05:12:06.976Z,17.90
2023-01-11T05:15:50.090Z,18.20
2023-01-11T05:19:36.443Z,18.10
2023-01-11T05:23:09.575Z,18.10
2023-01-11T05:26:52.396Z,16.70
2023-01-11T05:30:39.108Z,17.70
2023-01-11T05:34:22.628Z,17.20
2023-01-11T05:38:05.815Z,20.00
2023-01-11T05:41:58.416Z,18.30
2023-01-11T05:45:50.510Z,16.80
2023-01-11T05:49:36.443Z,15.50
2023-01-11T05:53:20.177Z,16.10
2023-01-11T06:00:51.766Z,15.70
2023-01-11T06:04:35.155Z,14.50
2023-01-11T06:08:18.465Z,15.50
2023-01-11T06:12:01.662Z,15.10
2023-01-11T06:15:34.690Z,16.10
2023-01-11T06:19:17.889Z,15.80
2023-01-11T06:23:01.990Z,14.80
2023-01-11T06:26:38.040Z,16.60
2023-01-11T06:30:21.480Z,11.10
2023-01-11T06:34:04.604Z,14.00
2023-01-11T06:37:32.555Z,15.30
2023-01-11T06:41:10.591Z,14.40
2023-01-11T06:44:53.654Z,13.90
2023-01-11T06:52:12.518Z,15.70
2023-01-11T06:55:55.612Z,13.60
2023-01-11T06:59:38.898Z,14.80
2023-01-11T07:03:29.574Z,14.60
2023-01-11T07:07:03.829Z,14.80
2023-01-11T07:10:47.065Z,15.10
2023-01-11T07:14:30.380Z,14.40
2023-01-11T07:18:13.734Z,12.50
2023-01-11T07:21:58.065Z,13.50
2023-01-11T07:25:41.439Z,12.90
2023-01-11T07:29:24.815Z,13.10
2023-01-11T07:33:07.873Z,12.90
2023-01-11T07:36:51.448Z,11.30
2023-01-11T07:40:24.860Z,13.90
2023-01-11T07:44:07.960Z,14.00
2023-01-11T07:47:51.602Z,13.40
2023-01-11T07:51:36.220Z,13.50
2023-01-11T07:55:20.141Z,10.20
2023-01-11T07:58:52.299Z,11.60
2023-01-11T08:02:35.782Z,11.00
2023-01-11T08:06:36.480Z,11.90
2023-01-11T08:10:19.972Z,10.40
2023-01-11T08:14:01.259Z,11.50
2023-01-11T08:17:44.514Z,11.30
2023-01-11T08:21:28.315Z,10.10
2023-01-11T08:25:04.307Z,8.90
2023-01-11T08:28:47.878Z,9.00
2023-01-11T08:32:31.130Z,9.50
2023-01-11T08:36:14.514Z,10.50
2023-01-11T08:39:48.910Z,11.90
2023-01-11T08:43:37.838Z,10.50
2023-01-11T08:51:03.061Z,9.50
2023-01-11T08:54:38.727Z,10.30
2023-01-11T08:58:22.404Z,11.00
2023-01-11T09:06:10.155Z,11.00
2023-01-11T09:09:47.179Z,11.90
2023-01-11T09:13:30.722Z,10.30
2023-01-11T09:17:13.851Z,11.10
2023-01-11T09:20:57.023Z,10.70
2023-01-11T09:24:40.081Z,10.40
2023-01-11T09:28:23.033Z,10.10
2023-01-11T09:32:06.187Z,8.90
2023-01-11T09:35:49.435Z,8.60
2023-01-11T09:39:32.135Z,8.80
2023-01-11T09:43:33.236Z,9.30
2023-01-11T09:47:16.460Z,8.70
2023-01-11T09:51:26.957Z,10.10
2023-01-11T09:55:12.620Z,9.90
2023-01-11T09:58:56.053Z,9.20
2023-01-11T10:02:36.423Z,9.40
2023-01-11T10:18:21.108Z,8.80
2023-01-11T10:18:38.923Z,10.20
2023-01-11T10:22:14.036Z,9.00
2023-01-11T10:26:03.006Z,9.40
2023-01-11T10:30:10.225Z,10.10
2023-01-11T10:33:45.656Z,11.40
2023-01-11T10:37:48.419Z,9.50
2023-01-11T10:41:37.455Z,10.90
2023-01-11T10:45:21.930Z,10.00
2023-01-11T10:49:15.093Z,11.00
2023-01-11T10:53:11.427Z,11.00
2023-01-11T10:57:05.290Z,11.30
2023-01-11T11:00:51.630Z,11.70
2023-01-11T11:04:57.058Z,11.90
2023-01-11T11:08:53.465Z,12.10
2023-01-11T11:12:37.994Z,11.10
2023-01-11T11:16:28.727Z,12.40
2023-01-11T11:20:13.397Z,12.50
2023-01-11T11:23:56.741Z,13.60
2023-01-11T11:27:52.731Z,11.80
2023-01-11T11:31:42.051Z,14.90
2023-01-11T11:35:26.754Z,14.20
2023-01-11T11:39:22.990Z,13.50
2023-01-11T11:43:07.774Z,13.60
2023-01-11T11:46:54.978Z,13.90
2023-01-11T11:50:44.694Z,13.40
2023-01-11T11:54:29.487Z,14.20
2023-01-11T11:58:16.695Z,14.90
2023-01-11T12:02:01.102Z,13.90
2023-01-11T12:05:47.838Z,14.10
2023-01-11T12:09:32.480Z,15.00
2023-01-11T12:13:09.471Z,16.00
2023-01-11T12:17:00.346Z,14.60
2023-01-11T12:20:44.680Z,15.30
2023-01-11T12:24:28.274Z,13.50
2023-01-11T12:28:18.618Z,13.50
2023-01-11T12:32:07.287Z,13.60
2023-01-11T12:36:15.916Z,13.10
2023-01-11T12:39:58.806Z,11.90
2023-01-11T12:44:04.543Z,13.30
2023-01-11T12:47:54.616Z,14.50
2023-01-11T12:51:44.871Z,15.10
2023-01-11T12:55:47.603Z,11.00
2023-01-11T12:59:34.884Z,14.10
2023-01-11T13:03:40.422Z,14.60
2023-01-11T13:07:55.060Z,16.40
2023-01-11T13:12:03.747Z,14.60
2023-01-11T13:16:27.155Z,14.00
2023-01-11T13:20:21.453Z,12.60
2023-01-11T13:24:11.717Z,12.50
2023-01-11T13:27:56.216Z,12.90
2023-01-11T13:31:42.528Z,14.50
2023-01-11T13:35:41.478Z,14.40
2023-01-11T13:39:37.630Z,15.30
2023-01-11T13:43:30.478Z,16.30
2023-01-11T13:51:14.281Z,16.10
2023-01-11T13:55:00.474Z,18.50
2023-01-11T13:58:47.809Z,17.90
2023-01-11T14:02:43.833Z,19.20
2023-01-11T14:06:26.379Z,21.40
2023-01-11T14:10:19.676Z,21.10
2023-01-11T14:14:03.662Z,19.90
2023-01-11T14:18:03.252Z,20.70
2023-01-11T14:22:18.611Z,20.80
2023-01-11T14:26:11.821Z,16.40
2023-01-11T14:30:02.446Z,17.60
2023-01-11T14:34:07.652Z,17.50
2023-01-11T14:37:52.947Z,16.80
2023-01-11T14:41:55.615Z,16.50
2023-01-11T14:46:01.198Z,17.50
2023-01-11T14:49:43.853Z,17.10
2023-01-11T14:53:19.722Z,17.40
2023-01-11T14:57:02.449Z,19.10
2023-01-11T15:00:39.373Z,17.80
2023-01-11T15:04:23.794Z,18.50
2023-01-11T15:08:23.734Z,18.40
2023-01-11T15:12:09.550Z,18.00
2023-01-11T15:15:58.255Z,19.50
2023-01-11T15:19:42.935Z,19.80
2023-01-11T15:23:20.137Z,20.10
2023-01-11T15:27:04.671Z,19.10
2023-01-11T15:30:49.148Z,18.50
2023-01-11T15:34:45.707Z,16.50
2023-01-11T15:38:27.184Z,15.80
2023-01-11T15:42:26.709Z,15.50
2023-01-11T15:46:24.743Z,14.90
2023-01-11T15:50:10.777Z,14.40
2023-01-11T15:54:01.174Z,14.70
2023-01-11T15:58:06.569Z,16.20
2023-01-11T16:01:50.919Z,15.80
2023-01-11T16:05:50.283Z,16.20
2023-01-11T16:09:37.686Z,16.50
2023-01-11T16:13:27.999Z,15.40
2023-01-11T16:17:15.676Z,16.70
2023-01-11T16:20:53.097Z,16.00
2023-01-11T16:24:26.417Z,16.30
2023-01-11T16:28:45.881Z,18.60
2023-01-11T16:32:35.439Z,18.70
2023-01-11T16:36:18.942Z,18.20
2023-01-11T16:40:06.156Z,18.20
2023-01-11T16:43:56.606Z,17.10
2023-01-11T16:47:52.581Z,17.40
2023-01-11T16:51:38.477Z,18.40
2023-01-11T16:55:22.604Z,20.00
2023-01-11T16:59:20.879Z,19.60
2023-01-11T17:03:05.205Z,20.50
2023-01-11T17:06:54.305Z,19.70
2023-01-11T17:10:36.085Z,20.90
2023-01-11T17:14:31.068Z,22.20
2023-01-11T17:18:07.393Z,20.40
2023-01-11T17:21:43.764Z,20.90
2023-01-11T17:25:29.598Z,19.50
2023-01-11T17:29:15.036Z,19.80
2023-01-11T17:32:47.121Z,21.10
2023-01-11T17:36:24.967Z,18.60
2023-01-11T17:40:00.725Z,19.10
2023-01-11T17:43:51.144Z,17.20
2023-01-11T17:47:34.415Z,19.70
2023-01-11T17:51:29.747Z,17.50
2023-01-11T17:55:18.809Z,17.30
2023-01-11T17:59:08.593Z,18.30
2023-01-11T18:02:54.883Z,16.90
2023-01-11T18:06:38.224Z,16.60
2023-01-11T18:10:27.384Z,17.80
2023-01-11T18:14:10.675Z,17.00
2023-01-11T18:18:11.984Z,17.80
2023-01-11T18:21:53.564Z,17.60
2023-01-11T18:25:39.434Z,17.40
2023-01-11T18:29:22.509Z,17.50
2023-01-11T18:33:05.731Z,17.70
2023-01-11T18:36:49.189Z,18.20
2023-01-11T18:40:31.337Z,18.20
2023-01-11T18:44:03.038Z,18.60
2023-01-11T18:47:51.683Z,18.00
2023-01-11T18:51:34.753Z,16.80
2023-01-11T18:55:17.868Z,17.50
2023-01-11T18:59:00.775Z,16.30
2023-01-11T19:02:46.537Z,15.60
2023-01-11T19:06:22.587Z,17.40
2023-01-11T19:10:05.659Z,15.70
2023-01-11T19:13:48.710Z,16.80
2023-01-11T19:17:31.817Z,18.40
2023-01-11T19:21:07.472Z,16.80
2023-01-11T19:24:50.525Z,17.80
2023-01-11T19:28:33.531Z,17.40
2023-01-11T19:32:17.493Z,18.90
2023-01-11T19:36:03.429Z,17.40
2023-01-11T19:39:46.488Z,17.30
2023-01-11T19:43:22.093Z,18.60
2023-01-11T19:47:13.531Z,17.70
2023-01-11T19:50:56.733Z,18.80
2023-01-11T19:54:42.963Z,19.50
2023-01-11T19:58:26.001Z,20.20
2023-01-11T20:01:54.362Z,19.80
2023-01-11T20:05:37.387Z,21.80
2023-01-11T20:09:20.449Z,21.00
2023-01-11T20:13:03.686Z,22.00
2023-01-11T20:16:37.277Z,20.70
2023-01-11T20:20:13.357Z,21.50
2023-01-11T20:23:50.263Z,21.80
2023-01-11T20:27:33.578Z,21.30
2023-01-11T20:31:16.848Z,22.10
2023-01-11T20:35:00.205Z,21.20
2023-01-11T20:38:43.239Z,23.10
2023-01-11T20:42:26.175Z,24.60
2023-01-11T20:46:09.423Z,23.40
2023-01-11T20:49:52.570Z,22.40
2023-01-11T20:53:35.723Z,22.20
2023-01-11T20:57:19.111Z,22.90
2023-01-11T21:01:03.879Z,22.00
2023-01-11T21:04:46.931Z,20.90
2023-01-11T21:08:29.883Z,21.20
2023-01-11T21:12:13.001Z,21.90
2023-01-11T21:15:56.185Z,19.10
2023-01-11T21:19:39.254Z,22.40
2023-01-11T21:23:23.925Z,18.80
2023-01-11T21:27:10.120Z,21.70
2023-01-11T21:30:53.246Z,21.50
2023-01-11T21:34:36.249Z,20.50
2023-01-11T21:38:19.341Z,20.90
2023-01-11T21:42:19.942Z,19.40
2023-01-11T21:46:03.057Z,14.70
2023-01-11T21:49:46.101Z,20.70
2023-01-11T21:53:29.065Z,20.40
2023-01-11T21:57:12.102Z,19.40
2023-01-11T22:00:55.382Z,20.80
2023-01-11T22:04:38.432Z,19.80
2023-01-11T22:08:22.441Z,19.00
2023-01-11T22:11:58.357Z,19.30
2023-01-11T22:15:41.034Z,19.40
2023-01-11T22:19:24.066Z,18.30
2023-01-11T22:22:59.868Z,19.80
2023-01-11T22:26:35.787Z,18.80
2023-01-11T22:30:18.742Z,19.10
2023-01-11T22:33:55.863Z,17.00
2023-01-11T22:40:47.030Z,18.20
2023-01-11T22:44:31.801Z,16.90
2023-01-11T22:48:14.883Z,18.20
2023-01-11T22:51:51.738Z,17.50
2023-01-11T22:55:34.737Z,16.80
2023-01-11T22:59:17.846Z,17.20
2023-01-11T23:03:00.886Z,16.20
2023-01-11T23:06:44.303Z,17.90
2023-01-11T23:10:26.761Z,18.30
2023-01-11T23:14:12.690Z,18.10
2023-01-11T23:17:37.571Z,17.80
2023-01-11T23:21:20.576Z,17.50
2023-01-11T23:24:56.192Z,18.90
2023-01-11T23:28:39.328Z,15.90
2023-01-11T23:32:22.341Z,16.30
2023-01-11T23:35:50.599Z,16.50
2023-01-11T23:39:33.785Z,15.20
2023-01-11T23:43:16.844Z,17.00
2023-01-11T23:46:58.235Z,16.90
2023-01-11T23:50:29.809Z,16.50
2023-01-11T23:54:12.853Z,17.10
2023-01-11T23:57:55.983Z,16.10
